Aeroporto :
LOGIN :

Iscrizione | Disclaimer

   EN    FR    IT 

 










Sommario :    VFR   VFR Marginale   IFR   IFR Intensivo   IFR Molto Intensivo
Visibilità : 
Base nubi : 
>= 8 km
>= 3000ft
5 / 8 km
1000 / 3000 ft
1500m / 5 km
500 / 1000 ft
800 / 1500m
200 / 500 ft
< 800m
< 200 ft
Simboli :   Temporali  Nebbia  Neve Forte  Precipitazioni Forti  Vento > 20 kt
SIGMETs :   Varie  Temporali  Ghiacco  Turbolenza  Onda orograficha  Ceneri Vulcaniche






- Altitudine del aeroporto : 39 ft
- Codice IATA : TRS


LIPQ - Friuli Venezia Giulia Apt. Trieste

ULTIMO METAR :
  • 211650Z AUTO 14007KT 9999 -RA SCT012/// BKN031/// BKN060/// 18/17 Q1006

METARs OBSOLETI :
  • 211620Z AUTO 17007KT 9999 -RA OVC009/// 18/17 Q1006
  • 211550Z AUTO 18007KT 9999 -RA BKN009/// BKN092/// 18/17 Q1006
  • 211520Z AUTO 19006KT 130V210 9999 -RA FEW008/// BKN049/// 18/17 Q1006
  • 211450Z AUTO 21009KT 9999 -RA SCT007/// OVC030/// 18/17 Q1006
  • 211420Z AUTO 21008KT 9999 -RA OVC008/// 18/18 Q1006 RERA
  • 211350Z AUTO 21006KT 9999 RA OVC008/// 18/18 Q1006
  • 211320Z AUTO 20004KT 9999 -RA SCT016/// OVC078/// 18/17 Q1006
  • 211250Z AUTO 21005KT 180V250 9999 -RA OVC063/// 18/17 Q1006 RERA
  • 211220Z AUTO 19004KT 140V220 9999 -RA FEW006/// BKN021/// BKN076/// 18/16 Q1006

TAF TAF LIPQ
Valido dal 21 a 12 ore il 22 a 12 ore UTC


211100Z 2112/2212 18010KT 6000 RA SCT030
TEMPO 2112/2120 3000 TSRA BKN008
BECMG 2119/2121 NSW



MetMap, La meteo Aeronautica in un colpo d'occhio ! - Copyright ORBIFLY Dicembre 2007 - Disclaimer

ORBIFLY MET'MAP TEAM :

Programmazione e sviluppo : Alexandra Zaïnal
Concezione : Baudouin d'Aumeries
Supporto tecnico e logistico : Manuel Goepfert
Aiuto : Marc-Olivier Méhu
Aiuto per la traduzione : Arnaldo La Scala




FONTI E CREDITI :

   NOAA